This is the latest recevied weather packets stored in our database for station/object AB2HM. If no packets are shown the sender has not sent any weather packets the latest 1 day(s).
| Time | Temp. | Humidity | Pressure | Rain* | Wind** | Luminosity | Snow |
|---|---|---|---|---|---|---|---|
| 1836274593 | 22.22° C | 57% | 1020.4 hPa | 0 mm | 0 m/s | - | - |
| 1778053843 | 19.44° C | 72% | 1011.7 hPa | 0 mm | 0 m/s | - | - |
| 1778052024 | 20° C | 71% | 1011.6 hPa | 0 mm | 0 m/s | - | - |
| 1778050200 | 20° C | 70% | 1011.8 hPa | 0 mm | 0 m/s | - | - |
| 1778048402 | 20° C | 70% | 1011.7 hPa | 0 mm | 0 m/s | - | - |
| 1778046601 | 20.56° C | 68% | 1011.8 hPa | 0 mm | 0 m/s | - | - |
| 1778044782 | 20.56° C | 67% | 1012 hPa | 0 mm | 0.45 m/s, 18° | - | - |
| 1778042981 | 21.11° C | 66% | 1012.3 hPa | 0 mm | 0 m/s | - | - |
| 1778041178 | 20.56° C | 65% | 1012.3 hPa | 0 mm | 0 m/s | - | - |
| 1778039369 | 21.11° C | 64% | 1012.3 hPa | 0 mm | 0 m/s | - | - |
| 1778037564 | 21.11° C | 62% | 1012.2 hPa | 0 mm | 0.45 m/s, 170° | - | - |
| 1778035741 | 21.67° C | 59% | 1012.3 hPa | 0 mm | 0.45 m/s, 150° | - | - |
| 1778033937 | 21.67° C | 56% | 1012.2 hPa | 0 mm | 0.45 m/s, 90° | - | - |
| 1778032133 | 22.22° C | 54% | 1012 hPa | 0 mm | 0.45 m/s, 158° | - | - |
| 1778030333 | 22.22° C | 54% | 1011.8 hPa | 0 mm | 0 m/s | - | - |
| 1778028524 | 22.78° C | 52% | 1011.5 hPa | 0 mm | 0.45 m/s, 143° | - | - |
| 1778026715 | 23.89° C | 46% | 1011.1 hPa | 0 mm | 0 m/s | - | - |
| 1778024907 | 25.56° C | 40% | 1011 hPa | 0 mm | 0 m/s | - | - |
| 1778023100 | 26.67° C | 35% | 1010.6 hPa | 0 mm | 0 m/s | - | - |
| 1778021295 | 27.22° C | 34% | 1010.5 hPa | 0 mm | 0 m/s | - | - |
| 1778019490 | 27.78° C | 32% | 1010.6 hPa | 0 mm | 1.79 m/s, 142° | - | - |
| 1778017690 | 28.89° C | 30% | 1010.5 hPa | 0 mm | 0.89 m/s, 135° | - | - |
| 1778015884 | 28.89° C | 28% | 1010.1 hPa | 0 mm | 0 m/s | - | - |
| 1778014079 | 29.44° C | 24% | 1010 hPa | 0 mm | 0 m/s | - | - |
| 1778012273 | 30° C | 22% | 1009.8 hPa | 0 mm | 1.34 m/s, 80° | - | - |
* Rain latest hour (hover to see other rain measurements)
** Current wind speed in m/s (hover to see current wind gust speed)